sensor_id;sensor_type;location;lat;lon;timestamp;pressure;altitude;pressure_sealevel;temperature;humidity
22662;BME280;11497;52.222;21.246;2023-02-23T00:02:07;100932.94;;;-0.28;57.11
22662;BME280;11497;52.222;21.246;2023-02-23T00:04:35;100927.31;;;-0.09;56.52
22662;BME280;11497;52.222;21.246;2023-02-23T00:07:04;100921.22;;;-0.14;56.78
22662;BME280;11497;52.222;21.246;2023-02-23T00:09:33;100922.91;;;-0.16;56.78
22662;BME280;11497;52.222;21.246;2023-02-23T00:12:05;100922.00;;;-0.18;57.17
22662;BME280;11497;52.222;21.246;2023-02-23T00:14:37;100927.91;;;-0.22;57.14
22662;BME280;11497;52.222;21.246;2023-02-23T00:17:05;100924.69;;;-0.12;57.10
22662;BME280;11497;52.222;21.246;2023-02-23T00:19:41;100923.13;;;-0.04;57.04
22662;BME280;11497;52.222;21.246;2023-02-23T00:22:10;100929.22;;;0.03;56.89
22662;BME280;11497;52.222;21.246;2023-02-23T00:24:39;100917.88;;;-0.10;56.92
22662;BME280;11497;52.222;21.246;2023-02-23T00:27:09;100918.44;;;-0.25;57.54
22662;BME280;11497;52.222;21.246;2023-02-23T00:29:39;100919.72;;;-0.03;57.51
22662;BME280;11497;52.222;21.246;2023-02-23T00:32:07;100921.47;;;0.01;57.58
22662;BME280;11497;52.222;21.246;2023-02-23T00:34:36;100924.09;;;0.04;57.27
22662;BME280;11497;52.222;21.246;2023-02-23T00:37:04;100928.31;;;0.00;57.26
22662;BME280;11497;52.222;21.246;2023-02-23T00:39:32;100923.78;;;-0.14;57.69
22662;BME280;11497;52.222;21.246;2023-02-23T00:41:59;100927.00;;;-0.26;58.32
22662;BME280;11497;52.222;21.246;2023-02-23T00:44:30;100920.09;;;-0.28;58.76
22662;BME280;11497;52.222;21.246;2023-02-23T00:47:02;100916.31;;;-0.02;58.65
22662;BME280;11497;52.222;21.246;2023-02-23T00:49:31;100922.72;;;-0.25;58.47
22662;BME280;11497;52.222;21.246;2023-02-23T00:52:01;100917.00;;;-0.11;58.86
22662;BME280;11497;52.222;21.246;2023-02-23T00:54:31;100912.53;;;-0.19;58.94
22662;BME280;11497;52.222;21.246;2023-02-23T00:56:59;100909.22;;;-0.14;58.76
22662;BME280;11497;52.222;21.246;2023-02-23T00:59:27;100912.53;;;-0.19;58.50
22662;BME280;11497;52.222;21.246;2023-02-23T01:01:56;100915.31;;;-0.09;58.60
22662;BME280;11497;52.222;21.246;2023-02-23T01:04:24;100906.09;;;0.04;58.61
22662;BME280;11497;52.222;21.246;2023-02-23T01:06:52;100898.84;;;0.31;58.55
22662;BME280;11497;52.222;21.246;2023-02-23T01:09:20;100900.28;;;0.14;58.13
22662;BME280;11497;52.222;21.246;2023-02-23T01:11:55;100904.56;;;0.15;58.16
22662;BME280;11497;52.222;21.246;2023-02-23T01:14:23;100900.16;;;0.08;58.54
22662;BME280;11497;52.222;21.246;2023-02-23T01:16:51;100902.78;;;0.11;58.88
22662;BME280;11497;52.222;21.246;2023-02-23T01:19:19;100900.63;;;0.36;58.69
22662;BME280;11497;52.222;21.246;2023-02-23T01:21:48;100902.38;;;0.37;58.46
22662;BME280;11497;52.222;21.246;2023-02-23T01:24:17;100894.34;;;0.20;58.52
22662;BME280;11497;52.222;21.246;2023-02-23T01:26:45;100896.97;;;0.21;58.81
22662;BME280;11497;52.222;21.246;2023-02-23T01:29:17;100892.03;;;0.33;59.04
22662;BME280;11497;52.222;21.246;2023-02-23T01:31:47;100892.66;;;0.20;58.92
22662;BME280;11497;52.222;21.246;2023-02-23T01:34:19;100891.81;;;0.21;59.37
22662;BME280;11497;52.222;21.246;2023-02-23T01:36:50;100897.00;;;0.23;59.56
22662;BME280;11497;52.222;21.246;2023-02-23T01:39:20;100883.63;;;0.47;59.22
22662;BME280;11497;52.222;21.246;2023-02-23T01:41:48;100885.16;;;0.34;59.05
22662;BME280;11497;52.222;21.246;2023-02-23T01:46:46;100879.44;;;-0.01;59.77
22662;BME280;11497;52.222;21.246;2023-02-23T01:49:19;100874.44;;;0.08;60.62
22662;BME280;11497;52.222;21.246;2023-02-23T01:52:04;100867.84;;;0.24;60.02
22662;BME280;11497;52.222;21.246;2023-02-23T01:54:37;100865.94;;;0.14;60.46
22662;BME280;11497;52.222;21.246;2023-02-23T01:57:07;100863.06;;;-0.06;60.67
22662;BME280;11497;52.222;21.246;2023-02-23T01:59:42;100871.56;;;-0.10;61.15
22662;BME280;11497;52.222;21.246;2023-02-23T02:02:11;100860.88;;;-0.31;61.55
22662;BME280;11497;52.222;21.246;2023-02-23T02:04:42;100863.06;;;-0.06;61.60
22662;BME280;11497;52.222;21.246;2023-02-23T02:07:17;100865.50;;;-0.14;61.46
22662;BME280;11497;52.222;21.246;2023-02-23T02:09:53;100859.25;;;-0.26;62.01
22662;BME280;11497;52.222;21.246;2023-02-23T02:12:44;100856.13;;;-0.10;62.13
22662;BME280;11497;52.222;21.246;2023-02-23T02:15:15;100854.00;;;-0.32;62.55
22662;BME280;11497;52.222;21.246;2023-02-23T02:18:11;100859.13;;;-0.32;62.91
22662;BME280;11497;52.222;21.246;2023-02-23T02:29:25;100858.16;;;-0.39;63.91
22662;BME280;11497;52.222;21.246;2023-02-23T02:35:27;100857.63;;;-0.21;64.95
22662;BME280;11497;52.222;21.246;2023-02-23T02:43:39;100860.19;;;-0.68;64.95
22662;BME280;11497;52.222;21.246;2023-02-23T02:46:15;100854.09;;;-0.73;65.46
22662;BME280;11497;52.222;21.246;2023-02-23T02:49:12;100834.34;;;-0.74;66.08
22662;BME280;11497;52.222;21.246;2023-02-23T02:51:42;100856.59;;;-0.76;66.48
22662;BME280;11497;52.222;21.246;2023-02-23T02:54:32;100855.50;;;-0.89;67.36
22662;BME280;11497;52.222;21.246;2023-02-23T02:57:04;100854.66;;;-0.88;67.78
22662;BME280;11497;52.222;21.246;2023-02-23T02:59:47;100847.84;;;-0.84;68.38
22662;BME280;11497;52.222;21.246;2023-02-23T03:02:39;100851.75;;;-0.61;68.38
22662;BME280;11497;52.222;21.246;2023-02-23T03:05:37;100846.81;;;-0.52;68.32
22662;BME280;11497;52.222;21.246;2023-02-23T03:11:31;100846.81;;;-0.52;68.53
22662;BME280;11497;52.222;21.246;2023-02-23T03:14:51;100852.00;;;-0.49;68.86
22662;BME280;11497;52.222;21.246;2023-02-23T03:17:44;100851.38;;;-0.79;69.27
22662;BME280;11497;52.222;21.246;2023-02-23T03:26:54;100862.00;;;-1.45;71.90
22662;BME280;11497;52.222;21.246;2023-02-23T03:29:54;100843.25;;;-1.79;72.55
22662;BME280;11497;52.222;21.246;2023-02-23T03:32:55;100851.03;;;-1.76;73.42
22662;BME280;11497;52.222;21.246;2023-02-23T03:35:47;100852.69;;;-1.78;74.29
22662;BME280;11497;52.222;21.246;2023-02-23T03:38:49;100855.06;;;-1.85;74.38
22662;BME280;11497;52.222;21.246;2023-02-23T03:41:40;100854.53;;;-2.07;75.16
22662;BME280;11497;52.222;21.246;2023-02-23T03:44:35;100839.41;;;-1.96;76.04
22662;BME280;11497;52.222;21.246;2023-02-23T03:47:28;100857.28;;;-1.99;76.28
22662;BME280;11497;52.222;21.246;2023-02-23T03:50:29;100850.72;;;-1.88;77.21
22662;BME280;11497;52.222;21.246;2023-02-23T03:53:21;100857.34;;;-1.96;77.22
22662;BME280;11497;52.222;21.246;2023-02-23T03:56:12;100857.34;;;-1.96;78.06
22662;BME280;11497;52.222;21.246;2023-02-23T03:59:01;100852.22;;;-1.96;78.51
22662;BME280;11497;52.222;21.246;2023-02-23T04:01:51;100864.00;;;-2.04;78.42
22662;BME280;11497;52.222;21.246;2023-02-23T04:04:40;100857.13;;;-2.05;78.68
22662;BME280;11497;52.222;21.246;2023-02-23T04:07:28;100857.31;;;-1.97;79.24
22662;BME280;11497;52.222;21.246;2023-02-23T04:10:16;100859.88;;;-1.97;79.38
22662;BME280;11497;52.222;21.246;2023-02-23T04:13:10;100868.16;;;-2.08;79.90
22662;BME280;11497;52.222;21.246;2023-02-23T04:15:48;100868.31;;;-2.02;80.14
22662;BME280;11497;52.222;21.246;2023-02-23T04:18:29;100863.91;;;-2.07;80.85
22662;BME280;11497;52.222;21.246;2023-02-23T04:20:57;100864.00;;;-2.04;81.46
22662;BME280;11497;52.222;21.246;2023-02-23T04:23:26;100865.22;;;-1.90;81.80
22662;BME280;11497;52.222;21.246;2023-02-23T04:25:55;100859.63;;;-1.74;81.31
22662;BME280;11497;52.222;21.246;2023-02-23T04:28:25;100853.97;;;-1.59;81.83
22662;BME280;11497;52.222;21.246;2023-02-23T04:30:53;100854.03;;;-1.56;81.55
22662;BME280;11497;52.222;21.246;2023-02-23T04:33:22;100863.44;;;-1.56;81.27
22662;BME280;11497;52.222;21.246;2023-02-23T04:35:55;100856.84;;;-1.45;81.83
22662;BME280;11497;52.222;21.246;2023-02-23T04:38:23;100858.44;;;-1.50;81.57
22662;BME280;11497;52.222;21.246;2023-02-23T04:40:51;100853.78;;;-1.29;81.71
22662;BME280;11497;52.222;21.246;2023-02-23T04:43:19;100852.75;;;-1.37;81.55
22662;BME280;11497;52.222;21.246;2023-02-23T04:45:47;100855.56;;;-1.25;81.46
22662;BME280;11497;52.222;21.246;2023-02-23T04:48:14;100852.63;;;-1.03;81.46
22662;BME280;11497;52.222;21.246;2023-02-23T04:50:42;100844.34;;;-0.89;80.97
22662;BME280;11497;52.222;21.246;2023-02-23T04:53:10;100853.06;;;-0.81;80.61
22662;BME280;11497;52.222;21.246;2023-02-23T04:55:38;100852.31;;;-0.76;79.94
22662;BME280;11497;52.222;21.246;2023-02-23T04:58:07;100844.56;;;-0.77;79.90
22662;BME280;11497;52.222;21.246;2023-02-23T05:00:40;100849.69;;;-0.79;80.01
22662;BME280;11497;52.222;21.246;2023-02-23T05:03:08;100861.91;;;-0.67;79.44
22662;BME280;11497;52.222;21.246;2023-02-23T05:05:37;100853.31;;;-0.69;79.62
22662;BME280;11497;52.222;21.246;2023-02-23T05:08:06;100851.75;;;-0.61;79.21
22662;BME280;11497;52.222;21.246;2023-02-23T05:10:34;100853.78;;;-0.45;79.18
22662;BME280;11497;52.222;21.246;2023-02-23T05:13:02;100849.22;;;-0.59;79.10
22662;BME280;11497;52.222;21.246;2023-02-23T05:15:30;100846.94;;;-0.43;78.96
22662;BME280;11497;52.222;21.246;2023-02-23T05:17:57;100845.13;;;-0.50;78.66
22662;BME280;11497;52.222;21.246;2023-02-23T05:20:25;100849.53;;;-0.44;78.71
22662;BME280;11497;52.222;21.246;2023-02-23T05:22:53;100852.25;;;-0.34;78.30
22662;BME280;11497;52.222;21.246;2023-02-23T05:25:21;100850.53;;;-0.35;77.81
22662;BME280;11497;52.222;21.246;2023-02-23T05:27:49;100846.25;;;-0.34;77.96
22662;BME280;11497;52.222;21.246;2023-02-23T05:30:17;100854.81;;;-0.35;77.96
22662;BME280;11497;52.222;21.246;2023-02-23T05:32:45;100853.06;;;-0.36;77.58
22662;BME280;11497;52.222;21.246;2023-02-23T05:35:13;100841.22;;;-0.28;77.36
22662;BME280;11497;52.222;21.246;2023-02-23T05:37:41;100849.03;;;-0.23;77.03
22662;BME280;11497;52.222;21.246;2023-02-23T05:40:09;100844.09;;;-0.11;76.25
22662;BME280;11497;52.222;21.246;2023-02-23T05:42:37;100850.28;;;-0.02;75.97
22662;BME280;11497;52.222;21.246;2023-02-23T05:45:06;100855.28;;;-0.09;75.61
22662;BME280;11497;52.222;21.246;2023-02-23T05:47:34;100852.03;;;0.03;75.62
22662;BME280;11497;52.222;21.246;2023-02-23T05:50:07;100862.19;;;-0.07;74.96
22662;BME280;11497;52.222;21.246;2023-02-23T05:52:38;100861.38;;;-0.04;74.69
22662;BME280;11497;52.222;21.246;2023-02-23T05:55:09;100862.25;;;-0.04;74.32
22662;BME280;11497;52.222;21.246;2023-02-23T05:57:38;100862.41;;;0.07;74.17
22662;BME280;11497;52.222;21.246;2023-02-23T06:00:08;100858.28;;;0.17;73.44
22662;BME280;11497;52.222;21.246;2023-02-23T06:02:36;100858.19;;;0.12;73.28
22662;BME280;11497;52.222;21.246;2023-02-23T06:05:04;100859.06;;;0.13;73.14
22662;BME280;11497;52.222;21.246;2023-02-23T06:07:32;100861.72;;;0.17;72.72
22662;BME280;11497;52.222;21.246;2023-02-23T06:10:00;100865.06;;;0.13;72.86
22662;BME280;11497;52.222;21.246;2023-02-23T06:12:28;100867.84;;;0.25;72.35
22662;BME280;11497;52.222;21.246;2023-02-23T06:14:56;100862.69;;;0.24;71.93
22662;BME280;11497;52.222;21.246;2023-02-23T06:17:24;100857.63;;;0.30;71.65
22662;BME280;11497;52.222;21.246;2023-02-23T06:19:52;100867.22;;;0.39;71.47
22662;BME280;11497;52.222;21.246;2023-02-23T06:22:19;100862.94;;;0.39;71.49
22662;BME280;11497;52.222;21.246;2023-02-23T06:24:47;100866.56;;;0.53;70.68
22662;BME280;11497;52.222;21.246;2023-02-23T06:27:16;100868.34;;;0.57;70.53
22662;BME280;11497;52.222;21.246;2023-02-23T06:29:44;100870.00;;;0.54;70.36
22662;BME280;11497;52.222;21.246;2023-02-23T06:32:11;100866.81;;;0.70;70.00
22662;BME280;11497;52.222;21.246;2023-02-23T06:34:46;100860.91;;;0.77;69.48
22662;BME280;11497;52.222;21.246;2023-02-23T06:37:13;100870.53;;;0.92;69.22
22662;BME280;11497;52.222;21.246;2023-02-23T06:39:41;100872.19;;;0.88;68.58
22662;BME280;11497;52.222;21.246;2023-02-23T06:42:09;100873.25;;;1.03;68.41
22662;BME280;11497;52.222;21.246;2023-02-23T06:44:37;100866.53;;;1.14;67.83
22662;BME280;11497;52.222;21.246;2023-02-23T06:47:06;100864.88;;;1.19;67.55
22662;BME280;11497;52.222;21.246;2023-02-23T06:49:34;100851.03;;;1.11;67.55
22662;BME280;11497;52.222;21.246;2023-02-23T06:52:01;100865.00;;;1.31;67.02
22662;BME280;11497;52.222;21.246;2023-02-23T06:54:29;100871.03;;;1.28;66.75
22662;BME280;11497;52.222;21.246;2023-02-23T06:56:57;100876.19;;;1.30;66.53
22662;BME280;11497;52.222;21.246;2023-02-23T06:59:25;100873.72;;;1.41;66.19
22662;BME280;11497;52.222;21.246;2023-02-23T07:01:53;100867.72;;;1.43;65.95
22662;BME280;11497;52.222;21.246;2023-02-23T07:04:21;100877.34;;;1.56;65.90
22662;BME280;11497;52.222;21.246;2023-02-23T07:06:50;100871.41;;;1.63;65.52
22662;BME280;11497;52.222;21.246;2023-02-23T07:09:18;100866.25;;;1.63;65.15
22662;BME280;11497;52.222;21.246;2023-02-23T07:11:45;100865.50;;;1.77;64.86
22662;BME280;11497;52.222;21.246;2023-02-23T07:14:14;100867.38;;;1.91;64.55
22662;BME280;11497;52.222;21.246;2023-02-23T07:16:53;100862.25;;;1.96;63.54
22662;BME280;11497;52.222;21.246;2023-02-23T07:19:21;100863.22;;;2.06;63.81
22662;BME280;11497;52.222;21.246;2023-02-23T07:21:49;100859.03;;;2.23;63.35
22662;BME280;11497;52.222;21.246;2023-02-23T07:24:17;100859.06;;;2.27;63.19
22662;BME280;11497;52.222;21.246;2023-02-23T07:26:45;100864.34;;;2.40;62.71
22662;BME280;11497;52.222;21.246;2023-02-23T07:29:14;100861.75;;;2.40;62.10
22662;BME280;11497;52.222;21.246;2023-02-23T07:31:42;100851.47;;;2.47;61.68
22662;BME280;11497;52.222;21.246;2023-02-23T07:34:10;100856.72;;;2.56;61.20
22662;BME280;11497;52.222;21.246;2023-02-23T07:36:38;100861.91;;;2.62;60.76
22662;BME280;11497;52.222;21.246;2023-02-23T07:39:06;100857.72;;;2.80;60.48
22662;BME280;11497;52.222;21.246;2023-02-23T07:41:34;100849.13;;;2.84;59.83
22662;BME280;11497;52.222;21.246;2023-02-23T07:44:02;100850.84;;;2.86;60.05
22662;BME280;11497;52.222;21.246;2023-02-23T07:46:30;100860.34;;;2.90;59.52
22662;BME280;11497;52.222;21.246;2023-02-23T07:48:58;100850.88;;;2.89;59.26
22662;BME280;11497;52.222;21.246;2023-02-23T07:51:25;100844.03;;;3.00;59.33
22662;BME280;11497;52.222;21.246;2023-02-23T07:53:53;100850.13;;;3.15;58.80
22662;BME280;11497;52.222;21.246;2023-02-23T07:56:21;100842.38;;;3.18;58.95
22662;BME280;11497;52.222;21.246;2023-02-23T07:58:49;100840.75;;;3.56;58.00
22662;BME280;11497;52.222;21.246;2023-02-23T08:01:17;100844.28;;;3.89;57.64
22662;BME280;11497;52.222;21.246;2023-02-23T08:03:45;100832.03;;;5.00;56.78
22662;BME280;11497;52.222;21.246;2023-02-23T08:06:17;100828.44;;;5.26;54.26
22662;BME280;11497;52.222;21.246;2023-02-23T08:08:46;100819.16;;;4.72;53.87
22662;BME280;11497;52.222;21.246;2023-02-23T08:11:13;100821.84;;;4.30;54.09
22662;BME280;11497;52.222;21.246;2023-02-23T08:13:42;100826.13;;;3.92;54.74
22662;BME280;11497;52.222;21.246;2023-02-23T08:16:10;100816.66;;;4.00;55.13
22662;BME280;11497;52.222;21.246;2023-02-23T08:18:39;100820.13;;;4.26;54.55
22662;BME280;11497;52.222;21.246;2023-02-23T08:21:07;100820.06;;;4.35;54.70
22662;BME280;11497;52.222;21.246;2023-02-23T08:23:35;100814.88;;;4.63;54.91
22662;BME280;11497;52.222;21.246;2023-02-23T08:26:03;100817.31;;;5.04;54.00
22662;BME280;11497;52.222;21.246;2023-02-23T08:28:31;100804.34;;;5.06;53.32
22662;BME280;11497;52.222;21.246;2023-02-23T08:30:59;100805.22;;;4.98;52.71
22662;BME280;11497;52.222;21.246;2023-02-23T08:33:27;100802.75;;;4.74;53.09
22662;BME280;11497;52.222;21.246;2023-02-23T08:35:58;100800.09;;;4.82;52.97
22662;BME280;11497;52.222;21.246;2023-02-23T08:38:26;100800.72;;;5.34;52.43
22662;BME280;11497;52.222;21.246;2023-02-23T08:40:54;100807.44;;;6.70;51.38
22662;BME280;11497;52.222;21.246;2023-02-23T08:43:22;100793.81;;;7.20;49.26
22662;BME280;11497;52.222;21.246;2023-02-23T08:45:49;100796.94;;;6.80;48.68
22662;BME280;11497;52.222;21.246;2023-02-23T08:48:17;100793.47;;;6.80;48.51
22662;BME280;11497;52.222;21.246;2023-02-23T08:50:45;100789.28;;;7.36;47.86
22662;BME280;11497;52.222;21.246;2023-02-23T08:53:16;100771.34;;;7.14;47.29
22662;BME280;11497;52.222;21.246;2023-02-23T08:55:45;100782.78;;;6.99;47.29
22662;BME280;11497;52.222;21.246;2023-02-23T08:58:13;100786.44;;;8.06;46.87
22662;BME280;11497;52.222;21.246;2023-02-23T09:00:41;100781.56;;;9.25;45.13
22662;BME280;11497;52.222;21.246;2023-02-23T09:03:09;100780.09;;;9.89;43.69
22662;BME280;11497;52.222;21.246;2023-02-23T09:05:37;100768.81;;;10.22;42.49
22662;BME280;11497;52.222;21.246;2023-02-23T09:08:05;100784.59;;;10.52;41.43
22662;BME280;11497;52.222;21.246;2023-02-23T09:10:33;100777.88;;;10.74;41.06
22662;BME280;11497;52.222;21.246;2023-02-23T09:13:02;100775.53;;;10.94;40.17
22662;BME280;11497;52.222;21.246;2023-02-23T09:15:30;100770.81;;;11.07;39.49
22662;BME280;11497;52.222;21.246;2023-02-23T09:18:01;100778.19;;;11.80;38.79
22662;BME280;11497;52.222;21.246;2023-02-23T09:20:29;100772.38;;;11.98;38.33
22662;BME280;11497;52.222;21.246;2023-02-23T09:22:58;100768.84;;;11.43;37.95
22662;BME280;11497;52.222;21.246;2023-02-23T09:25:26;100769.88;;;10.48;38.55
22662;BME280;11497;52.222;21.246;2023-02-23T09:27:56;100767.00;;;9.90;39.03
22662;BME280;11497;52.222;21.246;2023-02-23T09:30:26;100767.50;;;9.30;39.43
22662;BME280;11497;52.222;21.246;2023-02-23T09:32:55;100760.72;;;8.82;40.66
22662;BME280;11497;52.222;21.246;2023-02-23T09:35:24;100754.03;;;8.68;41.05
22662;BME280;11497;52.222;21.246;2023-02-23T09:37:54;100758.59;;;8.57;41.27
22662;BME280;11497;52.222;21.246;2023-02-23T09:40:28;100753.38;;;9.00;42.14
22662;BME280;11497;52.222;21.246;2023-02-23T09:43:18;100750.56;;;9.10;41.48
22662;BME280;11497;52.222;21.246;2023-02-23T09:48:35;100744.00;;;8.90;41.72
22662;BME280;11497;52.222;21.246;2023-02-23T09:51:06;100743.28;;;9.24;41.30
22662;BME280;11497;52.222;21.246;2023-02-23T09:53:47;100739.41;;;9.03;41.27
22662;BME280;11497;52.222;21.246;2023-02-23T09:56:26;100741.75;;;9.14;41.84
22662;BME280;11497;52.222;21.246;2023-02-23T09:58:57;100741.13;;;8.62;41.66
22662;BME280;11497;52.222;21.246;2023-02-23T10:06:33;100731.34;;;9.51;41.36
22662;BME280;11497;52.222;21.246;2023-02-23T10:09:47;100724.47;;;10.49;40.63
22662;BME280;11497;52.222;21.246;2023-02-23T10:15:24;100726.69;;;9.97;40.14
22662;BME280;11497;52.222;21.246;2023-02-23T10:18:29;100725.47;;;9.04;40.71
22662;BME280;11497;52.222;21.246;2023-02-23T10:23:50;100715.66;;;8.27;41.81
22662;BME280;11497;52.222;21.246;2023-02-23T10:26:42;100719.31;;;9.07;42.28
22662;BME280;11497;52.222;21.246;2023-02-23T10:29:33;100702.97;;;9.71;41.80
22662;BME280;11497;52.222;21.246;2023-02-23T10:34:41;100698.19;;;10.53;40.56
22662;BME280;11497;52.222;21.246;2023-02-23T10:37:11;100693.06;;;9.84;40.84
22662;BME280;11497;52.222;21.246;2023-02-23T10:39:40;100688.97;;;8.61;41.46
22662;BME280;11497;52.222;21.246;2023-02-23T10:42:15;100674.78;;;7.82;42.99
22662;BME280;11497;52.222;21.246;2023-02-23T10:44:45;100678.66;;;7.59;44.07
22662;BME280;11497;52.222;21.246;2023-02-23T10:47:19;100671.81;;;7.54;44.68
22662;BME280;11497;52.222;21.246;2023-02-23T10:49:50;100675.59;;;7.36;45.40
22662;BME280;11497;52.222;21.246;2023-02-23T10:52:40;100665.38;;;7.21;45.58
22662;BME280;11497;52.222;21.246;2023-02-23T10:55:30;100663.06;;;7.01;45.98
22662;BME280;11497;52.222;21.246;2023-02-23T10:58:16;100659.13;;;7.32;46.40
22662;BME280;11497;52.222;21.246;2023-02-23T11:00:59;100651.59;;;7.16;46.50
22662;BME280;11497;52.222;21.246;2023-02-23T11:03:47;100635.81;;;7.25;46.94
22662;BME280;11497;52.222;21.246;2023-02-23T11:08:57;100641.25;;;7.10;47.35
22662;BME280;11497;52.222;21.246;2023-02-23T11:11:27;100627.41;;;7.08;47.49
22662;BME280;11497;52.222;21.246;2023-02-23T11:13:56;100619.00;;;6.90;48.15
22662;BME280;11497;52.222;21.246;2023-02-23T11:16:37;100623.13;;;7.04;48.26
22662;BME280;11497;52.222;21.246;2023-02-23T11:19:36;100611.97;;;6.95;48.32
22662;BME280;11497;52.222;21.246;2023-02-23T11:22:05;100617.91;;;7.05;48.31
22662;BME280;11497;52.222;21.246;2023-02-23T11:24:36;100610.00;;;7.11;48.15
22662;BME280;11497;52.222;21.246;2023-02-23T11:27:16;100604.25;;;6.92;48.35
22662;BME280;11497;52.222;21.246;2023-02-23T11:29:48;100596.22;;;7.05;48.78
22662;BME280;11497;52.222;21.246;2023-02-23T11:32:20;100606.78;;;6.95;48.51
22662;BME280;11497;52.222;21.246;2023-02-23T11:37:41;100593.38;;;6.63;49.03
22662;BME280;11497;52.222;21.246;2023-02-23T11:40:30;100587.22;;;6.70;49.12
22662;BME280;11497;52.222;21.246;2023-02-23T11:45:57;100589.34;;;6.42;49.49
22662;BME280;11497;52.222;21.246;2023-02-23T11:48:43;100582.66;;;6.23;49.89
22662;BME280;11497;52.222;21.246;2023-02-23T11:51:35;100568.75;;;6.25;50.34
22662;BME280;11497;52.222;21.246;2023-02-23T11:54:04;100571.53;;;6.10;50.42
22662;BME280;11497;52.222;21.246;2023-02-23T11:56:34;100569.16;;;5.93;50.75
22662;BME280;11497;52.222;21.246;2023-02-23T11:59:05;100566.63;;;5.89;51.12
22662;BME280;11497;52.222;21.246;2023-02-23T12:01:41;100556.94;;;6.02;51.17
22662;BME280;11497;52.222;21.246;2023-02-23T12:04:28;100554.22;;;6.09;51.43
22662;BME280;11497;52.222;21.246;2023-02-23T12:09:53;100540.13;;;6.28;51.33
22662;BME280;11497;52.222;21.246;2023-02-23T12:12:25;100542.81;;;6.22;51.24
22662;BME280;11497;52.222;21.246;2023-02-23T12:15:23;100540.06;;;6.34;51.33
22662;BME280;11497;52.222;21.246;2023-02-23T12:18:00;100526.09;;;6.42;51.43
22662;BME280;11497;52.222;21.246;2023-02-23T12:20:36;100532.06;;;6.48;51.29
22662;BME280;11497;52.222;21.246;2023-02-23T12:23:18;100520.59;;;6.61;51.25
22662;BME280;11497;52.222;21.246;2023-02-23T12:25:57;100515.19;;;6.74;51.32
22662;BME280;11497;52.222;21.246;2023-02-23T12:28:32;100510.84;;;6.76;51.44
22662;BME280;11497;52.222;21.246;2023-02-23T12:31:22;100516.72;;;6.88;50.51
22662;BME280;11497;52.222;21.246;2023-02-23T12:34:23;100505.78;;;6.66;50.46
22662;BME280;11497;52.222;21.246;2023-02-23T12:37:03;100502.44;;;6.57;50.47
22662;BME280;11497;52.222;21.246;2023-02-23T12:39:42;100495.47;;;6.59;50.68
22662;BME280;11497;52.222;21.246;2023-02-23T12:42:36;100498.66;;;6.78;50.69
22662;BME280;11497;52.222;21.246;2023-02-23T12:45:43;100483.59;;;6.96;50.43
22662;BME280;11497;52.222;21.246;2023-02-23T12:51:29;100469.44;;;7.13;49.64
22662;BME280;11497;52.222;21.246;2023-02-23T12:53:59;100480.59;;;7.19;49.65
22662;BME280;11497;52.222;21.246;2023-02-23T12:56:36;100479.13;;;7.05;49.87
22662;BME280;11497;52.222;21.246;2023-02-23T13:02:17;100475.41;;;7.18;49.83
22662;BME280;11497;52.222;21.246;2023-02-23T13:05:15;100467.94;;;6.99;49.58
22662;BME280;11497;52.222;21.246;2023-02-23T13:07:49;100471.59;;;6.89;49.73
22662;BME280;11497;52.222;21.246;2023-02-23T13:10:36;100470.22;;;6.67;49.87
22662;BME280;11497;52.222;21.246;2023-02-23T13:13:24;100463.44;;;6.57;50.02
22662;BME280;11497;52.222;21.246;2023-02-23T13:26:34;100437.53;;;6.51;51.05
22662;BME280;11497;52.222;21.246;2023-02-23T13:31:41;100425.44;;;6.50;51.19
22662;BME280;11497;52.222;21.246;2023-02-23T13:34:30;100426.75;;;6.75;51.14
22662;BME280;11497;52.222;21.246;2023-02-23T13:37:02;100425.06;;;6.71;50.81
22662;BME280;11497;52.222;21.246;2023-02-23T13:42:41;100428.09;;;6.47;51.19
22662;BME280;11497;52.222;21.246;2023-02-23T13:54:04;100401.03;;;6.57;51.68
22662;BME280;11497;52.222;21.246;2023-02-23T13:56:46;100404.34;;;6.66;51.40
22662;BME280;11497;52.222;21.246;2023-02-23T13:59:20;100398.31;;;6.64;51.46
22662;BME280;11497;52.222;21.246;2023-02-23T14:01:50;100393.81;;;6.74;51.69
22662;BME280;11497;52.222;21.246;2023-02-23T14:04:25;100390.22;;;6.81;52.02
22662;BME280;11497;52.222;21.246;2023-02-23T14:07:25;100392.88;;;6.78;51.67
22662;BME280;11497;52.222;21.246;2023-02-23T14:10:05;100380.13;;;6.63;51.47
22662;BME280;11497;52.222;21.246;2023-02-23T14:12:38;100376.66;;;6.64;51.52
22662;BME280;11497;52.222;21.246;2023-02-23T14:17:58;100375.22;;;6.48;52.07
22662;BME280;11497;52.222;21.246;2023-02-23T14:20:48;100369.88;;;6.54;51.85
22662;BME280;11497;52.222;21.246;2023-02-23T14:26:34;100368.53;;;6.31;52.32
22662;BME280;11497;52.222;21.246;2023-02-23T14:28:47;100366.16;;;6.18;52.65
22662;BME280;11497;52.222;21.246;2023-02-23T14:31:34;100367.91;;;6.16;53.12
22662;BME280;11497;52.222;21.246;2023-02-23T14:34:07;100354.03;;;6.18;53.14
22662;BME280;11497;52.222;21.246;2023-02-23T14:36:41;100353.13;;;6.19;53.20
22662;BME280;11497;52.222;21.246;2023-02-23T14:39:22;100346.59;;;5.97;53.59
22662;BME280;11497;52.222;21.246;2023-02-23T14:41:57;100350.00;;;5.99;53.67
22662;BME280;11497;52.222;21.246;2023-02-23T14:44:41;100345.78;;;5.92;54.00
22662;BME280;11497;52.222;21.246;2023-02-23T14:47:14;100348.28;;;5.98;54.08
22662;BME280;11497;52.222;21.246;2023-02-23T14:49:56;100343.19;;;5.92;54.53
22662;BME280;11497;52.222;21.246;2023-02-23T14:52:34;100334.63;;;5.84;54.82
22662;BME280;11497;52.222;21.246;2023-02-23T14:57:43;100335.53;;;5.81;55.36
22662;BME280;11497;52.222;21.246;2023-02-23T15:00:19;100335.53;;;5.80;55.55